Portada
METAR-TAF:

METAR-TAF

Aeropuertos :

Aeropuerto de León

León, España

latitud: 42-35N, longitud: 005-39W, altitud: 926 m

Observación

El informe se hizo hace 37 minutos, a las 02:30 UTC
Viento 4 kt del suroeste
Temperatura 7°C
Humedad 100%
Presión 1024 hPa
Visibilidad 10 km o más

METAR: LELN 220230Z AUTO 22004KT 9999 NCD 07/07 Q1024

Hora: 05:07 (03:07 UTC)

Pronóstico

El informe se hizo hace 1 hora y 7 minutos, a las 02:00 UTC
Pronóstico válido del 22 a las 03 UTC al 22 a las 12 UTC
Viento 6 kt del norte
Visibilidad 10 km o más
sin nubes por debajo de 1500 m y sin presencia de cumulonimbus.
Evolucionando progresivamente
del 22 a las 10 UTC al 22 a las 12 UTC
Viento 12 kt del noreste

TAF: LELN 220200Z 2203/2212 35006KT CAVOK BECMG 2210/2212 05012KT

Observaciones y pronósticos meteorológicos de más de 4000 aeropuertos (mensajes METAR y TAF).

Los puntos amarillos y rojos representan las estaciones disponibles.

Ponga el ratón en el punto deseado para ver el nombre de la estación.

Haga clic para ver las observaciones y los pronósticos meteorológicos.

Para cambiar el mapa : haga clic en los botones verdes con una cruz de color negro para hacer un zoom, en el botón verde con un guión para alejar o en las flechas verdes para mapas adyacentes.


METAR-TAF: